Terminal Aerodrome Forecast
Issued by NWS

Home | Current Version | Previous Version | Text Only | Print | Product List | Glossary On
Versions: 1 2 3 4 5 6 7 8 9 10 11 12 13 14
000
FTUS45 KREV 301100
TAFMMH
TAF
KMMH 301120Z 3012/3112 VRB04KT P6SM BKN100 OVC140
     FM301900 12007KT P6SM VCSH SCT060 BKN100
     FM302200 28010KT P6SM VCTS BKN060CB BKN100
     FM310200 28006KT P6SM VCSH SCT060 BKN100
      AMD NOT SKED TIL 301400=

USA.gov is the U.S. government's official web portal to all federal, state and local government web resources and services.